Time;durP1;ratioP1;P1;durP2;ratioP2;P2;SDS_P1;SDS_P2;PMS_P1;PMS_P2;Temp;Humidity;BMP_temperature;BMP_pressure;BME280_temperature;BME280_humidity;BME280_pressure;Samples;Min_cycle;Max_cycle;Signal;HPM_P1;HPM_P2
2023/07/22 00:01:36;;;;;;;6.83;5.90;;;12.90;99.90;;;;;;5074052;28;20197;-74
2023/07/22 00:04:03;;;;;;;7.50;6.40;;;13.00;99.90;;;;;;5074022;28;20225;-74
2023/07/22 00:06:30;;;;;;;6.77;5.70;;;13.00;99.90;;;;;;5073856;28;20251;-73
2023/07/22 00:08:56;;;;;;;7.03;5.50;;;13.00;99.90;;;;;;5073955;28;20672;-73
2023/07/22 00:11:24;;;;;;;6.90;5.63;;;13.00;99.90;;;;;;5073476;28;20224;-73
2023/07/22 00:13:52;;;;;;;6.03;5.23;;;13.00;99.90;;;;;;5073973;28;20227;-73
2023/07/22 00:16:19;;;;;;;6.90;5.80;;;13.00;99.90;;;;;;5073402;28;20200;-73
2023/07/22 00:18:45;;;;;;;6.67;5.97;;;12.90;99.90;;;;;;5073874;28;20580;-73
2023/07/22 00:21:12;;;;;;;7.10;5.63;;;12.70;99.90;;;;;;5073836;28;20197;-73
2023/07/22 00:23:39;;;;;;;6.87;6.17;;;12.70;99.90;;;;;;5073541;28;20225;-73
2023/07/22 00:26:05;;;;;;;6.80;6.10;;;12.80;99.90;;;;;;5073654;28;20611;-73
2023/07/22 00:28:32;;;;;;;7.67;6.83;;;12.80;99.90;;;;;;5073432;28;20266;-73
2023/07/22 00:31:03;;;;;;;8.53;6.10;;;12.80;99.90;;;;;;5073278;28;20193;-73
2023/07/22 00:33:29;;;;;;;8.13;6.73;;;12.70;99.90;;;;;;5073527;28;20236;-74
2023/07/22 00:35:56;;;;;;;10.93;7.03;;;12.60;99.90;;;;;;5073285;28;20672;-74
2023/07/22 00:38:23;;;;;;;9.40;6.80;;;12.60;99.90;;;;;;5073354;28;20197;-74
2023/07/22 00:40:50;;;;;;;7.10;6.47;;;12.60;99.90;;;;;;5073147;28;20192;-74
2023/07/22 00:43:17;;;;;;;9.50;6.80;;;12.70;99.90;;;;;;5073106;28;20232;-74
2023/07/22 00:45:43;;;;;;;10.37;6.37;;;12.70;99.90;;;;;;5073041;28;20224;-76
2023/07/22 00:48:14;;;;;;;7.20;6.50;;;12.70;99.90;;;;;;5073220;28;20197;-73
2023/07/22 00:50:40;;;;;;;7.33;6.43;;;12.60;99.90;;;;;;5073017;28;20201;-74
2023/07/22 00:53:07;;;;;;;7.53;6.47;;;12.60;99.90;;;;;;5073109;28;20201;-73
2023/07/22 00:55:34;;;;;;;7.93;6.53;;;12.70;99.90;;;;;;5072809;28;20596;-74
2023/07/22 00:58:00;;;;;;;9.47;6.27;;;12.70;99.90;;;;;;5072734;28;20282;-73
2023/07/22 01:00:27;;;;;;;6.77;6.00;;;12.60;99.90;;;;;;5073013;28;20281;-74
2023/07/22 01:02:54;;;;;;;10.83;7.10;;;12.60;99.90;;;;;;5072993;28;20229;-74
2023/07/22 01:05:22;;;;;;;13.40;6.37;;;12.50;99.90;;;;;;5072926;28;20193;-74
2023/07/22 01:07:49;;;;;;;6.73;6.03;;;12.60;99.90;;;;;;5072799;28;20250;-74
2023/07/22 01:10:16;;;;;;;7.10;5.70;;;12.50;99.90;;;;;;5072772;28;20205;-74
2023/07/22 01:12:42;;;;;;;7.53;6.83;;;12.60;99.90;;;;;;5072553;28;20580;-74
2023/07/22 01:15:09;;;;;;;7.83;6.47;;;12.60;99.90;;;;;;5072755;28;20197;-74
2023/07/22 01:17:38;;;;;;;9.77;6.60;;;12.40;99.90;;;;;;5072872;28;20229;-75
2023/07/22 01:20:05;;;;;;;7.37;6.40;;;12.40;99.90;;;;;;5072972;28;20235;-74
2023/07/22 01:22:34;;;;;;;7.53;6.73;;;12.40;99.90;;;;;;5072689;28;20201;-74
2023/07/22 01:25:03;;;;;;;9.57;6.83;;;12.30;99.90;;;;;;5072587;28;20602;-74
2023/07/22 01:27:30;;;;;;;7.80;7.00;;;12.40;99.90;;;;;;5072111;28;20197;-74
2023/07/22 01:29:57;;;;;;;7.57;6.83;;;12.40;99.90;;;;;;5072377;28;20203;-74
2023/07/22 01:32:23;;;;;;;9.63;7.37;;;12.30;99.90;;;;;;5072712;28;20197;-75
2023/07/22 01:34:50;;;;;;;12.17;7.43;;;12.30;99.90;;;;;;5072647;28;20197;-74
2023/07/22 01:37:17;;;;;;;8.23;6.50;;;12.40;99.90;;;;;;5072328;28;20676;-74
2023/07/22 01:39:43;;;;;;;9.27;6.57;;;12.40;99.90;;;;;;5072354;28;20263;-74
2023/07/22 01:42:11;;;;;;;7.33;6.63;;;12.50;99.90;;;;;;5072554;28;20197;-74
2023/07/22 01:44:40;;;;;;;8.70;7.17;;;12.40;99.90;;;;;;5072484;28;20225;-74
2023/07/22 01:47:07;;;;;;;7.57;6.77;;;12.50;99.90;;;;;;5072464;28;20197;-75
2023/07/22 01:49:34;;;;;;;9.07;6.80;;;12.40;99.90;;;;;;5072296;28;20660;-74
2023/07/22 01:52:01;;;;;;;8.17;6.87;;;12.40;99.90;;;;;;5072578;28;20197;-74
2023/07/22 01:54:27;;;;;;;8.17;7.13;;;12.40;99.90;;;;;;5072221;28;20208;-74
2023/07/22 01:56:54;;;;;;;7.03;6.27;;;12.40;99.90;;;;;;5072205;28;20282;-74
2023/07/22 01:59:22;;;;;;;7.03;6.33;;;12.30;99.90;;;;;;5072444;28;20284;-74
2023/07/22 02:01:49;;;;;;;7.13;6.43;;;12.40;99.90;;;;;;5072267;28;20258;-74
2023/07/22 02:04:16;;;;;;;7.20;6.60;;;12.40;99.90;;;;;;5072159;28;20229;-74
2023/07/22 02:06:42;;;;;;;7.87;6.77;;;12.40;99.90;;;;;;5072144;28;20208;-74
2023/07/22 02:09:09;;;;;;;9.30;6.90;;;12.30;99.90;;;;;;5072254;28;20556;-74
2023/07/22 02:11:36;;;;;;;9.17;7.33;;;12.30;99.90;;;;;;5072311;28;20266;-74
2023/07/22 02:14:06;;;;;;;9.90;7.43;;;12.30;99.90;;;;;;5072209;28;20769;-74
2023/07/22 02:16:34;;;;;;;7.77;7.03;;;12.30;99.90;;;;;;5075511;28;20204;-74
2023/07/22 02:19:01;;;;;;;8.10;6.93;;;12.40;99.90;;;;;;5073966;28;20197;-75
2023/07/22 02:21:28;;;;;;;7.83;7.03;;;12.50;99.90;;;;;;5072042;28;20216;-74
2023/07/22 02:23:54;;;;;;;9.83;6.73;;;12.40;99.90;;;;;;5072357;28;20229;-74
2023/07/22 02:26:21;;;;;;;7.83;7.07;;;12.50;99.90;;;;;;5072203;28;20205;-74
2023/07/22 02:28:48;;;;;;;8.30;7.43;;;12.50;99.90;;;;;;5072116;28;20224;-74
2023/07/22 02:31:14;;;;;;;9.07;7.33;;;12.50;99.90;;;;;;5071959;28;20197;-74
2023/07/22 02:33:42;;;;;;;10.47;8.07;;;12.50;99.90;;;;;;5071946;28;20246;-74
2023/07/22 02:36:09;;;;;;;8.60;7.73;;;12.50;99.90;;;;;;5071840;28;20201;-75
2023/07/22 02:38:36;;;;;;;8.33;7.47;;;12.50;99.90;;;;;;5072052;28;20243;-74
2023/07/22 02:41:05;;;;;;;10.80;7.83;;;12.50;99.90;;;;;;5075132;28;20254;-74
2023/07/22 02:43:32;;;;;;;8.43;7.53;;;12.40;99.90;;;;;;5075436;28;20224;-74
2023/07/22 02:46:00;;;;;;;9.63;7.33;;;12.30;99.90;;;;;;5075428;28;20227;-74
2023/07/22 02:48:27;;;;;;;10.70;8.60;;;12.20;99.90;;;;;;5075491;28;20282;-74
2023/07/22 02:50:56;;;;;;;15.20;8.97;;;12.20;99.90;;;;;;5075156;28;20240;-74
2023/07/22 02:53:22;;;;;;;11.30;8.50;;;12.10;99.90;;;;;;5075448;28;20211;-74
2023/07/22 02:55:49;;;;;;;9.47;8.43;;;12.20;99.90;;;;;;5075169;28;20193;-74
2023/07/22 02:58:16;;;;;;;10.93;8.70;;;12.10;99.90;;;;;;5075019;28;20224;-74
2023/07/22 03:00:43;;;;;;;11.60;8.07;;;12.20;99.90;;;;;;5075108;28;20193;-75
2023/07/22 03:03:10;;;;;;;9.00;8.10;;;12.20;99.90;;;;;;5075010;28;20228;-74
2023/07/22 03:05:36;;;;;;;8.37;7.57;;;12.10;99.90;;;;;;5075318;28;20283;-74
2023/07/22 03:08:05;;;;;;;9.17;7.47;;;12.10;99.90;;;;;;5075190;28;20201;-74
2023/07/22 03:10:31;;;;;;;10.67;8.03;;;12.10;99.90;;;;;;5075066;28;20611;-74
2023/07/22 03:12:59;;;;;;;10.37;7.97;;;12.00;99.90;;;;;;5075104;28;20641;-74
2023/07/22 03:15:26;;;;;;;11.10;8.13;;;12.00;99.90;;;;;;5074929;28;20197;-74
2023/07/22 03:17:53;;;;;;;12.60;8.70;;;11.90;99.90;;;;;;5075224;28;20208;-74
2023/07/22 03:20:21;;;;;;;10.63;7.53;;;11.90;99.90;;;;;;5074963;28;20197;-74
2023/07/22 03:22:48;;;;;;;11.13;9.37;;;11.80;99.90;;;;;;5074814;28;20292;-74
2023/07/22 03:25:17;;;;;;;9.47;8.50;;;11.80;99.90;;;;;;5074810;28;20229;-74
2023/07/22 03:27:45;;;;;;;9.87;8.93;;;11.80;99.90;;;;;;5074574;28;20295;-74
2023/07/22 03:30:15;;;;;;;10.33;8.60;;;11.70;99.90;;;;;;5074558;28;20242;-74
2023/07/22 03:32:42;;;;;;;10.73;8.73;;;11.70;99.90;;;;;;5074731;28;20204;-75
2023/07/22 03:35:10;;;;;;;9.73;8.77;;;11.80;99.90;;;;;;5074460;28;20564;-74
2023/07/22 03:37:37;;;;;;;10.00;8.90;;;11.80;99.90;;;;;;5074422;28;20635;-74
2023/07/22 03:40:07;;;;;;;11.57;9.43;;;11.80;99.90;;;;;;5074405;28;20201;-74
2023/07/22 03:42:35;;;;;;;10.30;9.00;;;11.80;99.90;;;;;;5074284;28;20209;-74
2023/07/22 03:45:02;;;;;;;11.83;9.60;;;11.80;99.90;;;;;;5074693;28;20224;-74
2023/07/22 03:47:28;;;;;;;11.47;8.57;;;11.80;99.90;;;;;;5074379;28;20656;-74
2023/07/22 03:49:55;;;;;;;9.80;8.67;;;11.80;99.90;;;;;;5074340;28;20194;-72
2023/07/22 03:52:21;;;;;;;10.30;9.30;;;11.80;99.90;;;;;;5073346;28;20319;-74
2023/07/22 03:54:48;;;;;;;9.87;8.70;;;11.90;99.90;;;;;;5074125;28;20197;-74
2023/07/22 03:57:15;;;;;;;12.47;10.00;;;11.90;99.90;;;;;;5074043;28;20229;-74
2023/07/22 03:59:43;;;;;;;11.30;10.10;;;11.90;99.90;;;;;;5074251;28;20201;-74
2023/07/22 04:02:09;;;;;;;10.27;9.20;;;11.90;99.90;;;;;;5073959;28;20648;-75
2023/07/22 04:04:36;;;;;;;11.33;9.30;;;11.90;99.90;;;;;;5073999;28;20278;-74
2023/07/22 04:07:03;;;;;;;11.33;9.10;;;12.00;99.90;;;;;;5074020;28;20205;-74
2023/07/22 04:09:29;;;;;;;10.37;9.03;;;12.00;99.90;;;;;;5073791;28;20280;-74
2023/07/22 04:11:56;;;;;;;10.30;9.30;;;11.90;99.90;;;;;;5073756;28;20262;-74
2023/07/22 04:14:23;;;;;;;9.23;8.33;;;12.00;99.90;;;;;;5074043;28;20247;-74
2023/07/22 04:16:51;;;;;;;9.47;8.10;;;11.90;99.90;;;;;;5073732;28;20715;-74
2023/07/22 04:19:17;;;;;;;9.43;8.33;;;11.90;99.90;;;;;;5073937;28;20200;-74
2023/07/22 04:21:44;;;;;;;8.57;7.77;;;12.00;99.90;;;;;;5073672;28;20243;-75
2023/07/22 04:24:11;;;;;;;9.33;7.93;;;11.90;99.90;;;;;;5073529;28;20700;-75
2023/07/22 04:26:37;;;;;;;9.03;7.77;;;12.10;99.90;;;;;;5073254;28;20316;-74
2023/07/22 04:29:04;;;;;;;8.97;7.87;;;12.10;99.90;;;;;;5073573;28;20722;-75
2023/07/22 04:31:31;;;;;;;9.87;8.53;;;12.10;99.90;;;;;;5073489;28;20557;-74
2023/07/22 04:33:59;;;;;;;10.67;8.10;;;12.20;99.90;;;;;;5073367;28;20250;-74
2023/07/22 04:36:26;;;;;;;9.47;8.47;;;12.30;99.90;;;;;;5073169;28;20243;-74
2023/07/22 04:38:53;;;;;;;9.33;7.67;;;12.20;99.90;;;;;;5073100;28;20209;-74
2023/07/22 04:41:19;;;;;;;9.27;7.97;;;12.30;99.90;;;;;;5073313;28;20192;-74
2023/07/22 04:43:47;;;;;;;9.57;8.67;;;12.40;99.90;;;;;;5073179;28;20275;-74
2023/07/22 04:46:14;;;;;;;8.77;7.30;;;12.50;99.90;;;;;;5073076;28;20284;-74
2023/07/22 04:48:40;;;;;;;10.97;7.93;;;12.50;99.90;;;;;;5073164;28;20274;-74
2023/07/22 04:51:08;;;;;;;9.37;7.80;;;12.50;99.90;;;;;;5072829;28;20254;-75
2023/07/22 04:53:35;;;;;;;9.70;7.87;;;12.50;99.90;;;;;;5072868;28;20226;-74
2023/07/22 04:56:02;;;;;;;8.47;6.67;;;12.60;99.90;;;;;;5072974;28;20277;-74
2023/07/22 04:58:29;;;;;;;8.07;7.17;;;12.60;99.90;;;;;;5072740;28;20197;-74
2023/07/22 05:00:56;;;;;;;8.53;6.87;;;12.60;99.90;;;;;;5072798;28;20190;-74
2023/07/22 05:03:25;;;;;;;11.57;7.20;;;12.60;99.90;;;;;;5090120;28;20202;-74
2023/07/22 05:05:51;;;;;;;9.67;7.57;;;12.70;99.90;;;;;;5072592;28;20655;-74
2023/07/22 05:08:19;;;;;;;8.27;7.37;;;12.80;99.90;;;;;;5072969;28;20208;-74
2023/07/22 05:10:47;;;;;;;7.47;6.70;;;12.90;99.90;;;;;;5072597;28;20201;-74
2023/07/22 05:13:14;;;;;;;7.43;6.57;;;13.00;99.90;;;;;;5072808;28;20197;-74
2023/07/22 05:15:40;;;;;;;8.23;6.87;;;13.10;99.90;;;;;;5072610;28;20204;-74
2023/07/22 05:18:07;;;;;;;10.17;7.07;;;13.20;99.90;;;;;;5072503;28;20284;-73
2023/07/22 05:20:33;;;;;;;8.13;7.33;;;13.40;99.90;;;;;;5072376;28;20676;-73
2023/07/22 05:23:00;;;;;;;9.97;6.40;;;13.60;99.90;;;;;;5072383;28;20205;-74
2023/07/22 05:25:28;;;;;;;7.67;6.77;;;13.80;99.90;;;;;;5072802;28;20274;-74
2023/07/22 05:27:55;;;;;;;7.20;6.50;;;13.90;99.90;;;;;;5072313;28;20687;-74
2023/07/22 05:30:21;;;;;;;7.00;6.13;;;14.00;99.90;;;;;;5072572;28;20227;-74
2023/07/22 05:32:48;;;;;;;6.87;5.67;;;14.10;99.90;;;;;;5072028;28;20254;-74
2023/07/22 05:35:15;;;;;;;6.93;5.90;;;14.10;99.90;;;;;;5072405;28;20201;-74
2023/07/22 05:37:41;;;;;;;7.13;5.23;;;14.10;99.90;;;;;;5072513;28;20200;-74
2023/07/22 05:40:09;;;;;;;6.90;5.73;;;14.20;99.90;;;;;;5072619;28;20602;-75
2023/07/22 05:42:38;;;;;;;7.03;5.97;;;14.30;99.90;;;;;;5072364;28;20205;-75
2023/07/22 05:45:05;;;;;;;6.27;5.63;;;14.40;99.90;;;;;;5072412;28;20270;-74
2023/07/22 05:47:31;;;;;;;6.10;5.50;;;14.50;99.90;;;;;;5072392;28;20197;-74
2023/07/22 05:49:58;;;;;;;8.17;5.00;;;14.40;99.90;;;;;;5077638;28;20200;-75
2023/07/22 05:52:25;;;;;;;7.70;5.57;;;14.50;99.90;;;;;;5072509;28;20197;-74
2023/07/22 05:54:51;;;;;;;6.10;5.40;;;14.50;99.90;;;;;;5072589;28;20197;-74
2023/07/22 05:57:18;;;;;;;6.37;5.77;;;14.60;99.90;;;;;;5072401;28;20302;-74
2023/07/22 05:59:46;;;;;;;8.67;5.87;;;14.60;99.90;;;;;;5072417;28;20196;-74
2023/07/22 06:02:15;;;;;;;10.63;6.83;;;14.70;99.90;;;;;;5072225;28;20197;-74
2023/07/22 06:04:41;;;;;;;9.00;6.30;;;14.60;99.90;;;;;;5072438;28;20250;-74
2023/07/22 06:07:08;;;;;;;8.57;6.57;;;14.60;99.90;;;;;;5052819;28;20255;-74
2023/07/22 06:09:36;;;;;;;7.23;6.03;;;14.70;99.90;;;;;;5052205;28;20695;-74
2023/07/22 06:12:03;;;;;;;7.13;5.57;;;14.80;99.90;;;;;;5052148;28;20198;-74
2023/07/22 06:14:29;;;;;;;6.47;5.87;;;14.90;99.90;;;;;;5053068;28;20209;-74
2023/07/22 06:16:57;;;;;;;7.23;5.90;;;15.10;99.90;;;;;;5056349;28;20247;-76
2023/07/22 06:19:24;;;;;;;9.17;6.40;;;15.10;99.90;;;;;;5056198;28;20194;-74
2023/07/22 06:21:51;;;;;;;7.93;5.77;;;15.20;99.90;;;;;;5056005;28;20194;-75
2023/07/22 06:24:17;;;;;;;6.33;5.50;;;15.30;99.90;;;;;;5055804;28;20217;-75
2023/07/22 06:26:44;;;;;;;7.57;5.83;;;15.40;99.90;;;;;;5055365;28;20198;-74
2023/07/22 06:29:10;;;;;;;8.47;6.17;;;15.40;99.90;;;;;;5055801;28;20717;-75
2023/07/22 06:31:37;;;;;;;6.80;5.50;;;15.40;99.90;;;;;;5055560;28;20198;-74
2023/07/22 06:34:05;;;;;;;8.97;5.93;;;15.40;99.90;;;;;;5055683;28;20194;-75
2023/07/22 06:36:32;;;;;;;6.37;5.77;;;15.60;99.90;;;;;;5055759;28;20202;-74
2023/07/22 06:38:58;;;;;;;7.20;5.37;;;15.70;99.90;;;;;;5055587;28;20657;-74
2023/07/22 06:41:25;;;;;;;6.23;5.20;;;15.80;99.90;;;;;;5055347;28;20236;-75
2023/07/22 06:43:52;;;;;;;7.47;5.80;;;15.90;99.90;;;;;;5056255;28;20198;-74
2023/07/22 06:46:19;;;;;;;6.73;6.10;;;16.10;99.90;;;;;;5055652;28;20236;-75
2023/07/22 06:48:45;;;;;;;7.05;6.35;;;16.10;99.90;;;;;;5055867;28;20197;-75
2023/07/22 06:51:13;;;;;;;6.70;5.55;;;16.20;99.90;;;;;;5055638;28;20244;-75
2023/07/22 06:53:40;;;;;;;6.32;5.38;;;16.30;99.90;;;;;;5055258;28;20276;-75
2023/07/22 06:56:07;;;;;;;9.25;5.50;;;16.40;99.90;;;;;;5055027;28;20204;-75
2023/07/22 06:58:34;;;;;;;7.63;5.82;;;16.50;99.90;;;;;;5055284;28;20198;-75
2023/07/22 07:01:00;;;;;;;14.50;5.93;;;16.70;99.90;;;;;;5055436;28;20519;-75
2023/07/22 07:03:27;;;;;;;6.30;5.70;;;17.00;99.90;;;;;;5055297;28;20205;-75
2023/07/22 07:05:54;;;;;;;6.82;5.40;;;17.10;99.90;;;;;;5055210;28;20275;-75
2023/07/22 07:08:23;;;;;;;6.85;5.18;;;17.30;99.90;;;;;;5055093;28;20198;-75
2023/07/22 07:10:49;;;;;;;5.40;4.88;;;17.50;99.90;;;;;;5055326;28;20198;-75
2023/07/22 07:13:16;;;;;;;8.10;5.07;;;17.90;99.90;;;;;;5054798;28;20213;-75
2023/07/22 07:15:47;;;;;;;5.55;4.90;;;18.10;99.90;;;;;;5054989;28;20256;-76
2023/07/22 07:18:13;;;;;;;6.30;4.90;;;18.00;99.90;;;;;;5055234;28;20201;-74
2023/07/22 07:20:40;;;;;;;7.05;5.05;;;18.30;99.90;;;;;;5054842;28;20198;-75
2023/07/22 07:23:06;;;;;;;8.13;4.70;;;18.80;99.90;;;;;;5054810;28;20550;-74
2023/07/22 07:25:34;;;;;;;6.80;4.78;;;19.00;99.90;;;;;;5053914;28;20272;-72
2023/07/22 07:28:01;;;;;;;6.82;4.93;;;19.10;99.90;;;;;;5054131;28;20272;-73
2023/07/22 07:30:28;;;;;;;5.80;4.10;;;19.40;99.90;;;;;;5054916;28;20218;-73
2023/07/22 07:32:55;;;;;;;6.90;4.68;;;19.60;99.90;;;;;;5054523;28;20680;-72
2023/07/22 07:35:21;;;;;;;6.47;4.55;;;19.50;99.90;;;;;;5054601;28;20198;-73
2023/07/22 07:37:48;;;;;;;4.72;4.22;;;19.60;99.90;;;;;;5054528;28;20202;-73
2023/07/22 07:40:15;;;;;;;7.53;4.60;;;19.60;99.90;;;;;;5054418;28;20232;-72
2023/07/22 07:42:43;;;;;;;5.50;4.38;;;19.30;99.90;;;;;;5054436;28;20201;-72
2023/07/22 07:45:10;;;;;;;4.78;4.32;;;19.60;99.90;;;;;;5054402;28;20231;-72
2023/07/22 07:47:36;;;;;;;5.05;4.50;;;19.90;99.90;;;;;;5054353;28;20347;-71
2023/07/22 07:50:04;;;;;;;5.20;3.97;;;19.90;99.90;;;;;;5054195;28;20197;-73
2023/07/22 07:52:30;;;;;;;6.30;4.57;;;19.90;99.90;;;;;;5054022;28;20197;-74
2023/07/22 07:54:57;;;;;;;5.57;4.15;;;19.90;99.90;;;;;;5054094;28;20205;-73
2023/07/22 07:57:23;;;;;;;6.28;4.13;;;19.90;99.90;;;;;;5054276;28;20236;-73
2023/07/22 07:59:51;;;;;;;6.40;4.35;;;20.00;99.90;;;;;;5054199;28;20201;-74
2023/07/22 08:02:18;;;;;;;4.30;3.90;;;20.00;99.90;;;;;;5065571;28;20659;-77
2023/07/22 08:04:45;;;;;;;4.13;3.65;;;20.30;99.90;;;;;;5074565;28;20342;-74
2023/07/22 08:07:15;;;;;;;4.57;3.97;;;20.80;99.90;;;;;;5073380;28;20200;-74
2023/07/22 08:09:42;;;;;;;5.72;4.03;;;21.00;99.90;;;;;;5053892;28;20634;-74
2023/07/22 08:12:09;;;;;;;5.97;3.95;;;21.10;99.90;;;;;;5053889;28;20281;-74
2023/07/22 08:14:36;;;;;;;5.32;3.80;;;21.30;99.90;;;;;;5053882;28;20197;-74
2023/07/22 08:17:04;;;;;;;4.63;4.22;;;21.20;99.90;;;;;;5053767;28;20534;-74
2023/07/22 08:19:31;;;;;;;5.55;3.80;;;21.00;99.90;;;;;;5053731;28;20288;-74
2023/07/22 08:21:57;;;;;;;4.20;3.75;;;20.70;99.90;;;;;;5053705;28;20193;-74
2023/07/22 08:24:24;;;;;;;4.05;3.65;;;21.20;99.90;;;;;;5053213;28;20654;-80
2023/07/22 08:26:51;;;;;;;5.53;3.92;;;21.70;99.90;;;;;;5052145;28;20274;-74
2023/07/22 08:29:17;;;;;;;7.05;3.95;;;22.30;99.90;;;;;;5053615;28;20248;-75
2023/07/22 08:31:44;;;;;;;6.15;4.50;;;22.70;99.90;;;;;;5053567;28;20589;-74
2023/07/22 08:34:12;;;;;;;4.40;4.00;;;22.00;98.80;;;;;;5053535;28;20201;-76
2023/07/22 08:36:38;;;;;;;4.10;3.70;;;21.30;99.30;;;;;;5053217;28;20650;-74
2023/07/22 08:39:07;;;;;;;3.95;3.55;;;21.40;99.50;;;;;;5053215;28;20197;-73
2023/07/22 08:41:34;;;;;;;5.43;4.25;;;21.30;99.80;;;;;;5053708;28;20198;-74
2023/07/22 08:44:02;;;;;;;5.60;4.03;;;21.50;99.90;;;;;;5053405;28;20198;-74
2023/07/22 08:46:30;;;;;;;4.70;3.80;;;21.50;99.40;;;;;;5053453;28;20295;-73
2023/07/22 08:48:59;;;;;;;6.78;3.80;;;21.40;99.90;;;;;;5052968;28;20807;-73
2023/07/22 08:51:29;;;;;;;5.07;3.83;;;21.60;99.50;;;;;;5052967;28;20688;-73
2023/07/22 08:53:57;;;;;;;6.53;4.07;;;21.90;99.00;;;;;;5053000;28;20657;-73
2023/07/22 08:56:25;;;;;;;5.22;3.97;;;21.60;98.80;;;;;;5052928;28;20237;-73
2023/07/22 08:58:52;;;;;;;4.40;4.00;;;21.10;99.90;;;;;;5053062;28;20198;-73
2023/07/22 09:01:19;;;;;;;4.53;3.90;;;21.20;99.90;;;;;;5052904;28;20248;-74
2023/07/22 09:03:47;;;;;;;3.60;3.30;;;22.10;99.90;;;;;;5052842;28;20227;-73
2023/07/22 09:06:14;;;;;;;4.63;3.47;;;22.30;98.70;;;;;;5053160;28;20275;-73
2023/07/22 09:08:43;;;;;;;4.13;3.55;;;22.70;99.00;;;;;;5053012;28;20201;-74
2023/07/22 09:11:10;;;;;;;4.30;3.90;;;23.10;98.10;;;;;;5052989;28;20627;-73
2023/07/22 09:13:39;;;;;;;4.15;3.47;;;23.40;97.90;;;;;;5052698;28;20727;-74
2023/07/22 09:16:06;;;;;;;6.40;3.65;;;23.10;97.40;;;;;;5052715;28;20205;-74
2023/07/22 09:18:34;;;;;;;4.45;3.50;;;22.50;98.10;;;;;;5052888;28;20251;-74
2023/07/22 09:21:00;;;;;;;4.00;3.60;;;22.70;99.10;;;;;;5052485;28;20680;-73
2023/07/22 09:23:34;;;;;;;4.40;3.33;;;22.60;99.40;;;;;;5052775;28;20197;-74
2023/07/22 09:26:11;;;;;;;5.25;3.53;;;22.60;99.90;;;;;;5052513;28;20308;-73
2023/07/22 09:28:52;;;;;;;4.00;3.20;;;22.40;99.90;;;;;;5052406;28;20289;-73
2023/07/22 09:31:19;;;;;;;5.15;3.33;;;22.80;99.90;;;;;;5052819;28;20197;-74
2023/07/22 09:33:45;;;;;;;3.22;2.92;;;22.80;99.40;;;;;;5053017;28;20197;-73
2023/07/22 09:36:12;;;;;;;3.63;3.33;;;22.70;99.90;;;;;;5052498;28;20623;-74
2023/07/22 09:38:39;;;;;;;3.42;3.05;;;22.70;99.90;;;;;;5052526;28;20202;-74
2023/07/22 09:41:06;;;;;;;4.03;3.00;;;21.80;99.90;;;;;;5052380;28;20202;-73
2023/07/22 09:43:37;;;;;;;4.07;3.20;;;21.80;99.90;;;;;;5052643;28;20198;-74
2023/07/22 09:46:08;;;;;;;5.30;3.20;;;22.00;99.90;;;;;;5052527;28;20264;-73
2023/07/22 09:48:41;;;;;;;4.90;3.13;;;22.30;99.90;;;;;;5052722;28;20205;-73
2023/07/22 09:51:13;;;;;;;4.05;2.88;;;22.40;99.90;;;;;;5056096;28;20712;-73
2023/07/22 09:53:45;;;;;;;5.30;3.10;;;22.50;99.50;;;;;;5056413;28;20528;-73
2023/07/22 09:56:12;;;;;;;4.97;2.90;;;22.00;98.30;;;;;;5056509;28;20206;-73
2023/07/22 09:58:41;;;;;;;7.53;2.67;;;21.70;98.30;;;;;;5056600;28;20201;-73
2023/07/22 10:01:12;;;;;;;3.55;2.55;;;21.50;99.20;;;;;;5056441;28;20201;-73
2023/07/22 10:03:40;;;;;;;6.32;2.80;;;21.40;98.70;;;;;;5056477;28;20205;-73
2023/07/22 10:06:08;;;;;;;3.40;2.70;;;21.40;98.80;;;;;;5056349;28;20229;-74
2023/07/22 10:08:36;;;;;;;7.22;2.75;;;22.30;97.70;;;;;;5056585;28;20257;-74
2023/07/22 10:11:06;;;;;;;5.13;2.67;;;22.00;95.90;;;;;;5056188;28;20675;-74
2023/07/22 10:13:33;;;;;;;2.50;2.30;;;22.30;96.90;;;;;;5056312;28;20225;-72
2023/07/22 10:16:02;;;;;;;4.13;2.80;;;22.10;96.10;;;;;;5056272;28;20267;-74
2023/07/22 10:18:29;;;;;;;2.55;2.35;;;22.30;96.40;;;;;;5056026;28;20620;-74
2023/07/22 10:20:57;;;;;;;2.47;2.28;;;22.40;96.10;;;;;;5056233;28;20278;-73
2023/07/22 10:23:26;;;;;;;6.15;2.97;;;22.10;96.30;;;;;;5056180;28;20202;-73
2023/07/22 10:25:54;;;;;;;4.72;2.80;;;22.10;97.30;;;;;;5056154;28;20229;-72
2023/07/22 10:28:22;;;;;;;3.78;2.50;;;22.90;96.80;;;;;;5055741;28;20197;-73
2023/07/22 10:30:49;;;;;;;3.00;2.50;;;23.10;94.40;;;;;;5055614;28;20649;-73
2023/07/22 10:33:17;;;;;;;6.00;2.90;;;22.70;93.60;;;;;;5055775;28;20259;-73
2023/07/22 10:36:04;;;;;;;7.10;2.75;;;22.00;94.50;;;;;;5055651;28;20657;-73
2023/07/22 10:38:31;;;;;;;4.00;2.65;;;21.80;95.20;;;;;;5055689;28;20204;-73
2023/07/22 10:40:58;;;;;;;3.92;2.63;;;21.60;94.50;;;;;;5055666;28;20213;-73
2023/07/22 10:43:26;;;;;;;3.83;2.55;;;21.40;95.00;;;;;;5055528;28;20201;-71
2023/07/22 10:45:54;;;;;;;3.80;2.70;;;21.20;94.80;;;;;;5055605;28;20218;-73
2023/07/22 10:48:28;;;;;;;3.55;2.78;;;20.90;95.00;;;;;;5055344;28;20703;-73
2023/07/22 10:50:58;;;;;;;3.72;2.83;;;20.90;95.20;;;;;;5055431;28;20219;-72
2023/07/22 10:53:30;;;;;;;3.67;2.70;;;21.00;95.60;;;;;;5055332;28;20248;-73
2023/07/22 10:56:05;;;;;;;3.90;2.85;;;21.20;95.50;;;;;;5055205;28;20205;-73
2023/07/22 10:58:33;;;;;;;5.13;3.10;;;21.70;95.10;;;;;;5055033;28;20197;-72
2023/07/22 11:01:25;;;;;;;3.47;2.70;;;22.10;95.20;;;;;;5054836;28;20665;-73
2023/07/22 11:04:11;;;;;;;4.28;2.40;;;23.00;94.30;;;;;;5055340;28;20236;-73
2023/07/22 11:06:39;;;;;;;4.53;2.65;;;23.70;92.60;;;;;;5055158;28;20221;-73
2023/07/22 11:09:05;;;;;;;2.97;2.53;;;23.80;92.00;;;;;;5055331;28;20243;-72
2023/07/22 11:11:39;;;;;;;5.57;2.60;;;23.90;92.10;;;;;;5055100;28;20554;-72
2023/07/22 11:14:17;;;;;;;3.08;2.47;;;24.30;91.20;;;;;;5055168;28;20197;-73
2023/07/22 11:16:45;;;;;;;4.20;2.55;;;23.60;89.70;;;;;;5054926;28;20194;-73
2023/07/22 11:19:14;;;;;;;3.05;2.75;;;23.40;87.90;;;;;;5055566;28;20201;-73
2023/07/22 11:21:41;;;;;;;2.90;2.50;;;23.60;85.50;;;;;;5054839;28;20657;-73
2023/07/22 11:24:08;;;;;;;4.28;2.50;;;23.70;84.90;;;;;;5055128;28;20645;-74
2023/07/22 11:26:35;;;;;;;3.65;2.63;;;24.20;81.10;;;;;;5054830;28;20224;-78
2023/07/22 11:29:02;;;;;;;5.03;2.70;;;24.50;81.20;;;;;;5054490;28;20259;-72
2023/07/22 11:31:33;;;;;;;2.78;2.20;;;25.80;81.20;;;;;;5053822;28;20198;-72
2023/07/22 11:33:59;;;;;;;4.35;2.47;;;27.00;74.60;;;;;;5054770;28;20200;-73
2023/07/22 11:36:27;;;;;;;4.30;2.67;;;27.20;71.00;;;;;;5053849;28;20255;-72
2023/07/22 11:38:55;;;;;;;3.20;2.40;;;26.50;66.10;;;;;;5054781;28;20267;-72
2023/07/22 11:41:22;;;;;;;3.60;2.60;;;26.90;65.80;;;;;;5054614;28;20208;-72
2023/07/22 11:43:48;;;;;;;6.93;2.80;;;26.40;66.00;;;;;;5054443;28;20202;-72
2023/07/22 11:46:16;;;;;;;4.88;2.70;;;25.90;66.30;;;;;;5054401;28;20226;-72
2023/07/22 11:48:50;;;;;;;3.05;2.50;;;26.10;63.40;;;;;;5054770;28;20193;-72
2023/07/22 11:51:18;;;;;;;2.67;2.45;;;26.70;60.50;;;;;;5054605;28;20251;-72
2023/07/22 11:53:49;;;;;;;2.78;2.35;;;25.70;59.50;;;;;;5054400;28;20236;-72
2023/07/22 11:56:20;;;;;;;2.60;2.40;;;25.80;60.50;;;;;;5054216;28;20223;-72
2023/07/22 11:58:50;;;;;;;2.88;2.50;;;26.30;59.40;;;;;;5054577;28;20182;-72
2023/07/22 12:01:17;;;;;;;4.13;2.17;;;26.60;58.30;;;;;;5054463;28;20202;-72
2023/07/22 12:03:43;;;;;;;2.38;2.13;;;26.50;58.90;;;;;;5054399;28;20257;-72
2023/07/22 12:06:11;;;;;;;3.42;2.55;;;27.80;57.60;;;;;;5054154;28;20217;-72
2023/07/22 12:08:43;;;;;;;3.88;2.40;;;28.40;54.30;;;;;;5054145;28;20645;-73
2023/07/22 12:11:17;;;;;;;3.30;2.35;;;26.60;54.20;;;;;;5053988;28;20198;-72
2023/07/22 12:13:46;;;;;;;3.90;2.80;;;26.50;56.00;;;;;;5053386;28;20223;-72
2023/07/22 12:16:13;;;;;;;3.97;2.78;;;25.80;54.50;;;;;;5053945;28;20679;-72
2023/07/22 12:18:44;;;;;;;4.00;2.85;;;24.70;55.20;;;;;;5053918;28;20204;-71
2023/07/22 12:21:10;;;;;;;4.60;2.55;;;23.90;56.80;;;;;;5053795;28;20596;-72
2023/07/22 12:23:38;;;;;;;3.28;2.63;;;23.90;57.60;;;;;;5053647;28;20198;-72
2023/07/22 12:26:04;;;;;;;4.97;2.70;;;24.10;58.50;;;;;;5053842;28;20206;-72
2023/07/22 12:28:33;;;;;;;4.63;2.38;;;24.40;58.40;;;;;;5053559;28;20193;-72
2023/07/22 12:30:59;;;;;;;7.47;2.53;;;24.30;59.30;;;;;;5053601;28;20247;-72
2023/07/22 12:33:26;;;;;;;4.18;2.97;;;25.00;59.70;;;;;;5053606;28;20247;-72
2023/07/22 12:35:54;;;;;;;4.47;2.30;;;25.70;58.60;;;;;;5053478;28;20198;-72
2023/07/22 12:38:21;;;;;;;2.95;2.40;;;25.30;57.90;;;;;;5053591;28;20208;-72
2023/07/22 12:40:48;;;;;;;7.78;2.53;;;25.10;58.80;;;;;;5053505;28;20201;-72
2023/07/22 12:43:14;;;;;;;4.20;2.67;;;25.10;58.10;;;;;;5053464;28;20251;-71
2023/07/22 12:45:42;;;;;;;5.70;2.38;;;24.90;58.90;;;;;;5053375;28;20198;-72
2023/07/22 12:48:10;;;;;;;2.85;2.40;;;25.00;58.90;;;;;;5053301;28;20279;-72